sensor_id;sensor_type;location;lat;lon;timestamp;pressure;altitude;pressure_sealevel;temperature;humidity
20019;BME280;10170;42.502;26.526;2022-11-20T00:01:07;99292.31;;;16.11;100.00
20019;BME280;10170;42.502;26.526;2022-11-20T00:03:35;99302.91;;;15.41;100.00
20019;BME280;10170;42.502;26.526;2022-11-20T00:06:03;99315.88;;;15.49;100.00
20019;BME280;10170;42.502;26.526;2022-11-20T00:08:30;99289.50;;;15.57;100.00
20019;BME280;10170;42.502;26.526;2022-11-20T00:10:57;99278.50;;;15.97;100.00
20019;BME280;10170;42.502;26.526;2022-11-20T00:13:23;99272.88;;;15.99;100.00
20019;BME280;10170;42.502;26.526;2022-11-20T00:15:57;99294.88;;;16.22;100.00
20019;BME280;10170;42.502;26.526;2022-11-20T00:18:24;99286.81;;;16.22;100.00
20019;BME280;10170;42.502;26.526;2022-11-20T00:20:51;99279.03;;;16.21;100.00
20019;BME280;10170;42.502;26.526;2022-11-20T00:23:19;99283.88;;;16.45;100.00
20019;BME280;10170;42.502;26.526;2022-11-20T00:25:46;99273.78;;;16.52;100.00
20019;BME280;10170;42.502;26.526;2022-11-20T00:28:13;99272.91;;;16.73;100.00
20019;BME280;10170;42.502;26.526;2022-11-20T00:30:39;99262.25;;;16.83;100.00
20019;BME280;10170;42.502;26.526;2022-11-20T00:33:06;99266.22;;;16.76;100.00
20019;BME280;10170;42.502;26.526;2022-11-20T00:35:33;99277.19;;;16.74;100.00
20019;BME280;10170;42.502;26.526;2022-11-20T00:37:59;99277.47;;;16.73;100.00
20019;BME280;10170;42.502;26.526;2022-11-20T00:40:26;99283.50;;;16.15;100.00
20019;BME280;10170;42.502;26.526;2022-11-20T00:42:53;99271.25;;;15.98;100.00
20019;BME280;10170;42.502;26.526;2022-11-20T00:45:20;99287.31;;;15.98;100.00
20019;BME280;10170;42.502;26.526;2022-11-20T00:47:46;99289.22;;;15.97;100.00
20019;BME280;10170;42.502;26.526;2022-11-20T00:50:13;99286.38;;;15.87;100.00
20019;BME280;10170;42.502;26.526;2022-11-20T00:52:40;99288.38;;;15.75;100.00
20019;BME280;10170;42.502;26.526;2022-11-20T00:55:07;99298.22;;;15.69;100.00
20019;BME280;10170;42.502;26.526;2022-11-20T00:57:33;99292.50;;;15.82;100.00
20019;BME280;10170;42.502;26.526;2022-11-20T01:00:00;99297.06;;;16.04;100.00
20019;BME280;10170;42.502;26.526;2022-11-20T01:02:27;99278.66;;;16.34;100.00
20019;BME280;10170;42.502;26.526;2022-11-20T01:04:53;99275.91;;;16.50;100.00
20019;BME280;10170;42.502;26.526;2022-11-20T01:07:20;99288.38;;;16.93;100.00
20019;BME280;10170;42.502;26.526;2022-11-20T01:09:47;99280.84;;;17.22;100.00
20019;BME280;10170;42.502;26.526;2022-11-20T01:12:13;99272.63;;;17.38;100.00
20019;BME280;10170;42.502;26.526;2022-11-20T01:14:40;99288.63;;;17.55;100.00
20019;BME280;10170;42.502;26.526;2022-11-20T01:17:07;99271.25;;;17.72;100.00
20019;BME280;10170;42.502;26.526;2022-11-20T01:19:33;99284.47;;;17.84;100.00
20019;BME280;10170;42.502;26.526;2022-11-20T01:22:00;99280.44;;;17.81;100.00
20019;BME280;10170;42.502;26.526;2022-11-20T01:24:27;99272.63;;;17.80;100.00
20019;BME280;10170;42.502;26.526;2022-11-20T01:26:54;99274.78;;;17.78;100.00
20019;BME280;10170;42.502;26.526;2022-11-20T01:29:24;99272.97;;;17.94;100.00
20019;BME280;10170;42.502;26.526;2022-11-20T01:31:51;99276.66;;;17.82;100.00
20019;BME280;10170;42.502;26.526;2022-11-20T01:34:20;99274.50;;;17.74;100.00
20019;BME280;10170;42.502;26.526;2022-11-20T01:36:49;99254.28;;;17.72;100.00
20019;BME280;10170;42.502;26.526;2022-11-20T01:39:19;99255.41;;;17.76;100.00
20019;BME280;10170;42.502;26.526;2022-11-20T01:41:48;99269.72;;;17.86;100.00
20019;BME280;10170;42.502;26.526;2022-11-20T01:44:49;99260.53;;;17.82;100.00
20019;BME280;10170;42.502;26.526;2022-11-20T01:52:43;99278.38;;;18.04;100.00
20019;BME280;10170;42.502;26.526;2022-11-20T01:55:25;99265.75;;;18.04;100.00
20019;BME280;10170;42.502;26.526;2022-11-20T01:57:53;99265.47;;;18.01;100.00
20019;BME280;10170;42.502;26.526;2022-11-20T02:00:20;99261.34;;;17.83;100.00
20019;BME280;10170;42.502;26.526;2022-11-20T02:03:16;99260.81;;;17.86;100.00
20019;BME280;10170;42.502;26.526;2022-11-20T02:05:49;99250.31;;;17.79;100.00
20019;BME280;10170;42.502;26.526;2022-11-20T02:08:19;99244.13;;;17.89;100.00
20019;BME280;10170;42.502;26.526;2022-11-20T02:10:46;99246.31;;;17.87;100.00
20019;BME280;10170;42.502;26.526;2022-11-20T02:13:13;99248.44;;;17.85;100.00
20019;BME280;10170;42.502;26.526;2022-11-20T02:15:59;99236.56;;;17.76;100.00
20019;BME280;10170;42.502;26.526;2022-11-20T02:18:26;99237.66;;;17.80;100.00
20019;BME280;10170;42.502;26.526;2022-11-20T02:21:02;99234.44;;;17.83;100.00
20019;BME280;10170;42.502;26.526;2022-11-20T02:23:38;99253.53;;;17.81;100.00
20019;BME280;10170;42.502;26.526;2022-11-20T02:26:09;99245.22;;;17.88;100.00
20019;BME280;10170;42.502;26.526;2022-11-20T02:28:37;99241.44;;;17.84;100.00
20019;BME280;10170;42.502;26.526;2022-11-20T02:31:04;99222.59;;;17.79;100.00
20019;BME280;10170;42.502;26.526;2022-11-20T02:33:31;99225.84;;;17.86;100.00
20019;BME280;10170;42.502;26.526;2022-11-20T02:35:58;99238.75;;;17.84;100.00
20019;BME280;10170;42.502;26.526;2022-11-20T02:38:24;99236.13;;;17.94;100.00
20019;BME280;10170;42.502;26.526;2022-11-20T02:40:51;99245.78;;;17.90;100.00
20019;BME280;10170;42.502;26.526;2022-11-20T02:43:22;99258.94;;;17.86;100.00
20019;BME280;10170;42.502;26.526;2022-11-20T02:45:48;99248.47;;;17.90;100.00
20019;BME280;10170;42.502;26.526;2022-11-20T02:48:15;99246.88;;;17.94;100.00
20019;BME280;10170;42.502;26.526;2022-11-20T02:50:42;99253.28;;;17.88;100.00
20019;BME280;10170;42.502;26.526;2022-11-20T02:53:09;99242.50;;;17.78;100.00
20019;BME280;10170;42.502;26.526;2022-11-20T02:55:35;99259.22;;;17.85;100.00
20019;BME280;10170;42.502;26.526;2022-11-20T02:58:02;99254.09;;;17.83;100.00
20019;BME280;10170;42.502;26.526;2022-11-20T03:00:29;99251.91;;;17.80;100.00
20019;BME280;10170;42.502;26.526;2022-11-20T03:02:56;99263.50;;;17.81;100.00
20019;BME280;10170;42.502;26.526;2022-11-20T03:05:22;99265.94;;;17.92;100.00
20019;BME280;10170;42.502;26.526;2022-11-20T03:07:49;99260.25;;;17.84;100.00
20019;BME280;10170;42.502;26.526;2022-11-20T03:10:16;99245.22;;;17.83;100.00
20019;BME280;10170;42.502;26.526;2022-11-20T03:12:43;99256.44;;;17.75;100.00
20019;BME280;10170;42.502;26.526;2022-11-20T03:15:09;99252.97;;;17.74;100.00
20019;BME280;10170;42.502;26.526;2022-11-20T03:17:37;99246.75;;;17.69;100.00
20019;BME280;10170;42.502;26.526;2022-11-20T03:20:04;99246.72;;;17.64;100.00
20019;BME280;10170;42.502;26.526;2022-11-20T03:22:31;99246.50;;;17.70;100.00
20019;BME280;10170;42.502;26.526;2022-11-20T03:24:57;99251.91;;;17.80;100.00
20019;BME280;10170;42.502;26.526;2022-11-20T03:27:24;99257.84;;;17.87;100.00
20019;BME280;10170;42.502;26.526;2022-11-20T03:29:51;99237.97;;;17.83;100.00
20019;BME280;10170;42.502;26.526;2022-11-20T03:32:18;99249.47;;;17.74;100.00
20019;BME280;10170;42.502;26.526;2022-11-20T03:34:44;99247.03;;;17.72;100.00
20019;BME280;10170;42.502;26.526;2022-11-20T03:37:11;99223.91;;;17.76;100.00
20019;BME280;10170;42.502;26.526;2022-11-20T03:39:38;99224.72;;;17.77;100.00
20019;BME280;10170;42.502;26.526;2022-11-20T03:42:04;99252.72;;;17.76;100.00
20019;BME280;10170;42.502;26.526;2022-11-20T03:44:51;99232.50;;;17.68;100.00
20019;BME280;10170;42.502;26.526;2022-11-20T03:47:17;99249.22;;;17.80;100.00
20019;BME280;10170;42.502;26.526;2022-11-20T03:49:44;99227.44;;;17.82;100.00
20019;BME280;10170;42.502;26.526;2022-11-20T03:52:11;99233.63;;;17.77;100.00
20019;BME280;10170;42.502;26.526;2022-11-20T03:54:38;99229.34;;;17.81;100.00
20019;BME280;10170;42.502;26.526;2022-11-20T03:57:04;99228.25;;;17.77;100.00
20019;BME280;10170;42.502;26.526;2022-11-20T03:59:31;99219.88;;;17.74;100.00
20019;BME280;10170;42.502;26.526;2022-11-20T04:01:58;99226.38;;;17.78;100.00
20019;BME280;10170;42.502;26.526;2022-11-20T04:04:25;99204.25;;;17.66;100.00
20019;BME280;10170;42.502;26.526;2022-11-20T04:06:51;99211.81;;;17.74;100.00
20019;BME280;10170;42.502;26.526;2022-11-20T04:09:18;99186.53;;;17.80;100.00
20019;BME280;10170;42.502;26.526;2022-11-20T04:11:45;99174.97;;;17.74;100.00
20019;BME280;10170;42.502;26.526;2022-11-20T04:14:13;99208.03;;;17.75;100.00
20019;BME280;10170;42.502;26.526;2022-11-20T04:16:43;99201.06;;;17.74;100.00
20019;BME280;10170;42.502;26.526;2022-11-20T04:19:12;99202.16;;;17.78;100.00
20019;BME280;10170;42.502;26.526;2022-11-20T04:21:39;99201.06;;;17.79;100.00
20019;BME280;10170;42.502;26.526;2022-11-20T04:24:06;99202.16;;;17.78;100.00
20019;BME280;10170;42.502;26.526;2022-11-20T04:26:34;99194.94;;;17.83;100.00
20019;BME280;10170;42.502;26.526;2022-11-20T04:29:01;99217.78;;;17.86;100.00
20019;BME280;10170;42.502;26.526;2022-11-20T04:31:33;99208.06;;;17.80;100.00
20019;BME280;10170;42.502;26.526;2022-11-20T04:34:01;99201.06;;;17.79;100.00
20019;BME280;10170;42.502;26.526;2022-11-20T04:36:29;99204.59;;;17.84;100.00
20019;BME280;10170;42.502;26.526;2022-11-20T04:39:03;99222.06;;;17.82;100.00
20019;BME280;10170;42.502;26.526;2022-11-20T04:41:32;99210.72;;;17.75;100.00
20019;BME280;10170;42.502;26.526;2022-11-20T04:44:01;99217.22;;;17.84;100.00
20019;BME280;10170;42.502;26.526;2022-11-20T04:46:32;99221.00;;;17.83;100.00
20019;BME280;10170;42.502;26.526;2022-11-20T04:48:59;99223.69;;;17.83;100.00
20019;BME280;10170;42.502;26.526;2022-11-20T04:51:26;99217.97;;;17.69;100.00
20019;BME280;10170;42.502;26.526;2022-11-20T04:53:53;99199.41;;;17.63;100.00
20019;BME280;10170;42.502;26.526;2022-11-20T04:56:20;99224.72;;;17.77;100.00
20019;BME280;10170;42.502;26.526;2022-11-20T04:58:47;99231.41;;;17.69;100.00
20019;BME280;10170;42.502;26.526;2022-11-20T05:01:16;99229.00;;;17.68;100.00
20019;BME280;10170;42.502;26.526;2022-11-20T05:03:44;99243.50;;;17.62;100.00
20019;BME280;10170;42.502;26.526;2022-11-20T05:06:13;99233.81;;;17.66;100.00
20019;BME280;10170;42.502;26.526;2022-11-20T05:08:40;99245.69;;;17.75;100.00
20019;BME280;10170;42.502;26.526;2022-11-20T05:11:09;99256.69;;;17.63;100.00
20019;BME280;10170;42.502;26.526;2022-11-20T05:13:37;99240.28;;;17.65;100.00
20019;BME280;10170;42.502;26.526;2022-11-20T05:16:34;99249.66;;;17.62;100.00
20019;BME280;10170;42.502;26.526;2022-11-20T05:19:01;99233.53;;;17.62;100.00
20019;BME280;10170;42.502;26.526;2022-11-20T05:21:30;99228.72;;;17.64;100.00
20019;BME280;10170;42.502;26.526;2022-11-20T05:23:57;99237.13;;;17.78;100.00
20019;BME280;10170;42.502;26.526;2022-11-20T05:26:24;99241.13;;;17.75;100.00
20019;BME280;10170;42.502;26.526;2022-11-20T05:28:51;99221.81;;;17.83;100.00
20019;BME280;10170;42.502;26.526;2022-11-20T05:31:20;99225.31;;;17.84;100.00
20019;BME280;10170;42.502;26.526;2022-11-20T05:33:53;99220.22;;;17.92;100.00
20019;BME280;10170;42.502;26.526;2022-11-20T05:36:21;99229.09;;;17.93;100.00
20019;BME280;10170;42.502;26.526;2022-11-20T05:38:47;99211.00;;;17.78;100.00
20019;BME280;10170;42.502;26.526;2022-11-20T05:41:18;99214.03;;;17.92;100.00
20019;BME280;10170;42.502;26.526;2022-11-20T05:43:46;99247.16;;;18.03;100.00
20019;BME280;10170;42.502;26.526;2022-11-20T05:46:15;99231.81;;;17.98;100.00
20019;BME280;10170;42.502;26.526;2022-11-20T05:48:43;99253.31;;;17.98;100.00
20019;BME280;10170;42.502;26.526;2022-11-20T05:51:12;99254.94;;;17.94;100.00
20019;BME280;10170;42.502;26.526;2022-11-20T05:53:40;99260.91;;;18.01;100.00
20019;BME280;10170;42.502;26.526;2022-11-20T05:56:19;99250.69;;;18.08;100.00
20019;BME280;10170;42.502;26.526;2022-11-20T05:58:47;99262.22;;;18.04;100.00
20019;BME280;10170;42.502;26.526;2022-11-20T06:01:24;99264.16;;;18.08;100.00
20019;BME280;10170;42.502;26.526;2022-11-20T06:03:53;99274.66;;;18.15;100.00
20019;BME280;10170;42.502;26.526;2022-11-20T06:06:20;99269.81;;;18.17;100.00
20019;BME280;10170;42.502;26.526;2022-11-20T06:08:48;99261.75;;;18.17;100.00
20019;BME280;10170;42.502;26.526;2022-11-20T06:11:15;99270.06;;;18.10;100.00
20019;BME280;10170;42.502;26.526;2022-11-20T06:13:43;99277.13;;;18.26;100.00
20019;BME280;10170;42.502;26.526;2022-11-20T06:16:11;99275.00;;;18.28;100.00
20019;BME280;10170;42.502;26.526;2022-11-20T06:18:39;99276.28;;;18.16;100.00
20019;BME280;10170;42.502;26.526;2022-11-20T06:23:37;99287.56;;;18.13;100.00
20019;BME280;10170;42.502;26.526;2022-11-20T06:26:07;99292.47;;;18.26;100.00
20019;BME280;10170;42.502;26.526;2022-11-20T06:28:34;99292.16;;;18.17;100.00
20019;BME280;10170;42.502;26.526;2022-11-20T06:31:01;99309.66;;;18.20;100.00
20019;BME280;10170;42.502;26.526;2022-11-20T06:33:29;99309.16;;;18.23;100.00
20019;BME280;10170;42.502;26.526;2022-11-20T06:36:00;99293.28;;;18.31;100.00
20019;BME280;10170;42.502;26.526;2022-11-20T06:38:34;99295.44;;;18.29;100.00
20019;BME280;10170;42.502;26.526;2022-11-20T06:41:01;99281.69;;;18.26;100.00
20019;BME280;10170;42.502;26.526;2022-11-20T06:43:28;99297.59;;;18.32;100.00
20019;BME280;10170;42.502;26.526;2022-11-20T06:45:56;99293.66;;;18.65;100.00
20019;BME280;10170;42.502;26.526;2022-11-20T06:48:26;99299.88;;;18.75;100.00
20019;BME280;10170;42.502;26.526;2022-11-20T06:50:53;99289.09;;;18.65;100.00
20019;BME280;10170;42.502;26.526;2022-11-20T06:53:19;99309.06;;;18.69;100.00
20019;BME280;10170;42.502;26.526;2022-11-20T06:55:47;99307.94;;;18.60;100.00
20019;BME280;10170;42.502;26.526;2022-11-20T06:58:15;99313.84;;;18.52;100.00
20019;BME280;10170;42.502;26.526;2022-11-20T07:00:42;99309.81;;;18.55;100.00
20019;BME280;10170;42.502;26.526;2022-11-20T07:03:10;99305.50;;;18.54;100.00
20019;BME280;10170;42.502;26.526;2022-11-20T07:05:37;99312.25;;;18.56;100.00
20019;BME280;10170;42.502;26.526;2022-11-20T07:08:05;99318.19;;;18.68;100.00
20019;BME280;10170;42.502;26.526;2022-11-20T07:10:32;99300.94;;;18.59;100.00
20019;BME280;10170;42.502;26.526;2022-11-20T07:12:59;99313.03;;;18.52;100.00
20019;BME280;10170;42.502;26.526;2022-11-20T07:15:26;99297.94;;;18.51;100.00
20019;BME280;10170;42.502;26.526;2022-11-20T07:17:53;99335.41;;;18.57;100.00
20019;BME280;10170;42.502;26.526;2022-11-20T07:20:19;99321.91;;;18.52;100.00
20019;BME280;10170;42.502;26.526;2022-11-20T07:22:46;99317.06;;;18.49;100.00
20019;BME280;10170;42.502;26.526;2022-11-20T07:25:13;99311.97;;;18.53;100.00
20019;BME280;10170;42.502;26.526;2022-11-20T07:27:39;99301.72;;;18.50;100.00
20019;BME280;10170;42.502;26.526;2022-11-20T07:30:06;99306.03;;;18.46;100.00
20019;BME280;10170;42.502;26.526;2022-11-20T07:32:33;99322.19;;;18.56;100.00
20019;BME280;10170;42.502;26.526;2022-11-20T07:35:00;99304.44;;;18.60;100.00
20019;BME280;10170;42.502;26.526;2022-11-20T07:37:27;99305.50;;;18.59;100.00
20019;BME280;10170;42.502;26.526;2022-11-20T07:39:53;99304.16;;;18.56;100.00
20019;BME280;10170;42.502;26.526;2022-11-20T07:42:20;99292.56;;;18.51;100.00
20019;BME280;10170;42.502;26.526;2022-11-20T07:44:47;99319.78;;;18.64;100.00
20019;BME280;10170;42.502;26.526;2022-11-20T07:47:13;99304.19;;;18.71;100.00
20019;BME280;10170;42.502;26.526;2022-11-20T07:49:40;99289.38;;;18.69;100.00
20019;BME280;10170;42.502;26.526;2022-11-20T07:52:07;99326.53;;;18.72;100.00
20019;BME280;10170;42.502;26.526;2022-11-20T07:54:34;99316.03;;;18.75;100.00
20019;BME280;10170;42.502;26.526;2022-11-20T07:57:00;99305.28;;;18.75;100.00
20019;BME280;10170;42.502;26.526;2022-11-20T07:59:27;99297.75;;;18.77;100.00
20019;BME280;10170;42.502;26.526;2022-11-20T08:01:54;99281.81;;;18.61;100.00
20019;BME280;10170;42.502;26.526;2022-11-20T08:04:21;99312.25;;;18.71;100.00
20019;BME280;10170;42.502;26.526;2022-11-20T08:06:51;99291.53;;;18.72;100.00
20019;BME280;10170;42.502;26.526;2022-11-20T08:09:18;99285.06;;;18.68;100.00
20019;BME280;10170;42.502;26.526;2022-11-20T08:11:45;99286.13;;;18.62;100.00
20019;BME280;10170;42.502;26.526;2022-11-20T08:14:31;99284.00;;;18.74;100.00
20019;BME280;10170;42.502;26.526;2022-11-20T08:16:58;99287.78;;;18.88;100.00
20019;BME280;10170;42.502;26.526;2022-11-20T08:19:25;99282.94;;;18.85;100.00
20019;BME280;10170;42.502;26.526;2022-11-20T08:21:52;99283.22;;;18.83;100.00
20019;BME280;10170;42.502;26.526;2022-11-20T08:24:19;99274.56;;;18.97;100.00
20019;BME280;10170;42.502;26.526;2022-11-20T08:26:45;99272.69;;;19.02;100.00
20019;BME280;10170;42.502;26.526;2022-11-20T08:29:12;99283.22;;;19.14;100.00
20019;BME280;10170;42.502;26.526;2022-11-20T08:31:39;99290.22;;;18.95;100.00
20019;BME280;10170;42.502;26.526;2022-11-20T08:34:06;99271.88;;;18.91;100.00
20019;BME280;10170;42.502;26.526;2022-11-20T08:36:36;99280.78;;;19.07;100.00
20019;BME280;10170;42.502;26.526;2022-11-20T08:39:03;99296.16;;;19.02;100.00
20019;BME280;10170;42.502;26.526;2022-11-20T08:41:30;99292.88;;;18.89;100.00
20019;BME280;10170;42.502;26.526;2022-11-20T08:44:01;99284.00;;;18.99;100.00
20019;BME280;10170;42.502;26.526;2022-11-20T08:46:36;99290.22;;;19.05;100.00
20019;BME280;10170;42.502;26.526;2022-11-20T08:49:05;99313.91;;;19.13;100.00
20019;BME280;10170;42.502;26.526;2022-11-20T08:51:32;99310.72;;;19.11;100.00
20019;BME280;10170;42.502;26.526;2022-11-20T08:53:59;99303.97;;;19.03;100.00
20019;BME280;10170;42.502;26.526;2022-11-20T08:56:26;99306.94;;;19.02;100.00
20019;BME280;10170;42.502;26.526;2022-11-20T08:58:53;99303.97;;;19.13;100.00
20019;BME280;10170;42.502;26.526;2022-11-20T09:01:40;99294.78;;;19.09;100.00
20019;BME280;10170;42.502;26.526;2022-11-20T09:04:06;99306.94;;;19.07;100.00
20019;BME280;10170;42.502;26.526;2022-11-20T09:06:33;99305.28;;;19.06;100.00
20019;BME280;10170;42.502;26.526;2022-11-20T09:09:00;99291.31;;;19.09;100.00
20019;BME280;10170;42.502;26.526;2022-11-20T09:11:31;99297.22;;;19.16;100.00
20019;BME280;10170;42.502;26.526;2022-11-20T09:14:00;99277.53;;;18.95;100.00
20019;BME280;10170;42.502;26.526;2022-11-20T09:16:29;99263.81;;;19.02;100.00
20019;BME280;10170;42.502;26.526;2022-11-20T09:18:55;99235.25;;;18.90;100.00
20019;BME280;10170;42.502;26.526;2022-11-20T09:21:42;99264.34;;;19.19;100.00
20019;BME280;10170;42.502;26.526;2022-11-20T09:24:09;99255.69;;;19.17;100.00
20019;BME280;10170;42.502;26.526;2022-11-20T09:26:35;99261.66;;;19.29;100.00
20019;BME280;10170;42.502;26.526;2022-11-20T09:29:02;99261.66;;;19.29;100.00
20019;BME280;10170;42.502;26.526;2022-11-20T09:31:29;99262.19;;;19.21;100.00
20019;BME280;10170;42.502;26.526;2022-11-20T09:33:56;99268.66;;;19.25;100.00
20019;BME280;10170;42.502;26.526;2022-11-20T09:36:23;99248.97;;;19.04;100.00
20019;BME280;10170;42.502;26.526;2022-11-20T09:38:49;99259.75;;;19.24;100.00
20019;BME280;10170;42.502;26.526;2022-11-20T09:46:48;99241.97;;;19.23;100.00
20019;BME280;10170;42.502;26.526;2022-11-20T09:54:35;99254.09;;;19.46;100.00
20019;BME280;10170;42.502;26.526;2022-11-20T09:57:18;99249.78;;;19.40;100.00
20019;BME280;10170;42.502;26.526;2022-11-20T09:59:53;99253.53;;;19.59;100.00
20019;BME280;10170;42.502;26.526;2022-11-20T10:10:39;99251.06;;;19.67;100.00
20019;BME280;10170;42.502;26.526;2022-11-20T10:13:20;99251.03;;;19.77;100.00
20019;BME280;10170;42.502;26.526;2022-11-20T10:16:24;99246.22;;;19.64;100.00
20019;BME280;10170;42.502;26.526;2022-11-20T10:19:09;99221.97;;;19.54;100.00
20019;BME280;10170;42.502;26.526;2022-11-20T10:22:11;99235.69;;;19.73;100.00
20019;BME280;10170;42.502;26.526;2022-11-20T10:25:15;99237.81;;;19.76;100.00
20019;BME280;10170;42.502;26.526;2022-11-20T10:30:38;99244.28;;;19.80;100.00
20019;BME280;10170;42.502;26.526;2022-11-20T10:33:13;99243.47;;;19.79;100.00
20019;BME280;10170;42.502;26.526;2022-11-20T10:35:50;99248.06;;;19.84;100.00
20019;BME280;10170;42.502;26.526;2022-11-20T10:41:02;99244.84;;;19.72;100.00
20019;BME280;10170;42.502;26.526;2022-11-20T10:43:52;99238.06;;;19.79;100.00
20019;BME280;10170;42.502;26.526;2022-11-20T10:46:21;99228.66;;;19.77;100.00
20019;BME280;10170;42.502;26.526;2022-11-20T10:48:49;99245.38;;;19.74;100.00
20019;BME280;10170;42.502;26.526;2022-11-20T10:51:54;99231.88;;;19.74;100.00
20019;BME280;10170;42.502;26.526;2022-11-20T11:02:32;99226.47;;;19.84;100.00
20019;BME280;10170;42.502;26.526;2022-11-20T11:05:14;99219.66;;;19.91;100.00
20019;BME280;10170;42.502;26.526;2022-11-20T11:07:45;99208.88;;;19.91;100.00
20019;BME280;10170;42.502;26.526;2022-11-20T11:12:44;99206.69;;;19.93;100.00
20019;BME280;10170;42.502;26.526;2022-11-20T11:15:39;99209.41;;;19.93;100.00
20019;BME280;10170;42.502;26.526;2022-11-20T11:18:10;99207.47;;;20.04;100.00
20019;BME280;10170;42.502;26.526;2022-11-20T11:20:38;99143.31;;;19.91;100.00
20019;BME280;10170;42.502;26.526;2022-11-20T11:23:05;99203.22;;;19.93;100.00
20019;BME280;10170;42.502;26.526;2022-11-20T11:25:34;99194.84;;;19.94;100.00
20019;BME280;10170;42.502;26.526;2022-11-20T11:28:20;99196.41;;;20.06;100.00
20019;BME280;10170;42.502;26.526;2022-11-20T11:30:47;99166.50;;;19.92;100.00
20019;BME280;10170;42.502;26.526;2022-11-20T11:35:49;99187.81;;;19.93;100.00
20019;BME280;10170;42.502;26.526;2022-11-20T11:38:27;99168.09;;;19.98;100.00
20019;BME280;10170;42.502;26.526;2022-11-20T11:40:56;99169.75;;;19.89;100.00
20019;BME280;10170;42.502;26.526;2022-11-20T11:43:26;99199.97;;;19.91;100.00
20019;BME280;10170;42.502;26.526;2022-11-20T11:52:03;99194.28;;;19.98;100.00
20019;BME280;10170;42.502;26.526;2022-11-20T11:54:36;99187.84;;;19.88;100.00
20019;BME280;10170;42.502;26.526;2022-11-20T11:57:12;99192.91;;;20.00;100.00
20019;BME280;10170;42.502;26.526;2022-11-20T11:59:51;99176.72;;;20.00;100.00
20019;BME280;10170;42.502;26.526;2022-11-20T12:05:24;99164.91;;;19.91;100.00
20019;BME280;10170;42.502;26.526;2022-11-20T12:08:02;99165.69;;;19.91;100.00
20019;BME280;10170;42.502;26.526;2022-11-20T12:10:52;99152.72;;;19.93;100.00
20019;BME280;10170;42.502;26.526;2022-11-20T12:13:32;99144.66;;;19.88;100.00
20019;BME280;10170;42.502;26.526;2022-11-20T12:16:02;99124.78;;;19.74;100.00
20019;BME280;10170;42.502;26.526;2022-11-20T12:18:30;99125.56;;;19.80;100.00
20019;BME280;10170;42.502;26.526;2022-11-20T12:23:44;99129.81;;;19.91;100.00
20019;BME280;10170;42.502;26.526;2022-11-20T12:40:53;99126.34;;;19.85;100.00
20019;BME280;10170;42.502;26.526;2022-11-20T12:43:24;99102.84;;;19.91;100.00
20019;BME280;10170;42.502;26.526;2022-11-20T12:46:49;99122.25;;;19.88;100.00
20019;BME280;10170;42.502;26.526;2022-11-20T12:57:53;99132.28;;;19.87;100.00
20019;BME280;10170;42.502;26.526;2022-11-20T13:00:22;99129.34;;;19.74;100.00
20019;BME280;10170;42.502;26.526;2022-11-20T13:05:52;99139.22;;;19.99;100.00
20019;BME280;10170;42.502;26.526;2022-11-20T13:08:25;99138.13;;;20.00;100.00
20019;BME280;10170;42.502;26.526;2022-11-20T13:13:50;99163.72;;;20.07;100.00
20019;BME280;10170;42.502;26.526;2022-11-20T13:16:27;99155.31;;;20.19;100.00
20019;BME280;10170;42.502;26.526;2022-11-20T13:19:02;99154.53;;;20.18;100.00
20019;BME280;10170;42.502;26.526;2022-11-20T13:21:41;99127.38;;;19.94;100.00
20019;BME280;10170;42.502;26.526;2022-11-20T13:29:43;99158.25;;;20.27;100.00
20019;BME280;10170;42.502;26.526;2022-11-20T13:32:17;99163.13;;;20.15;100.00
20019;BME280;10170;42.502;26.526;2022-11-20T13:35:00;99160.72;;;20.14;100.00
20019;BME280;10170;42.502;26.526;2022-11-20T13:37:36;99143.44;;;20.20;100.00
20019;BME280;10170;42.502;26.526;2022-11-20T13:42:44;99131.88;;;20.04;100.00
20019;BME280;10170;42.502;26.526;2022-11-20T13:45:31;99142.38;;;20.11;100.00
20019;BME280;10170;42.502;26.526;2022-11-20T13:48:16;99140.47;;;20.16;100.00
20019;BME280;10170;42.502;26.526;2022-11-20T13:50:56;99139.09;;;20.14;100.00
20019;BME280;10170;42.502;26.526;2022-11-20T13:53:30;99153.38;;;20.24;100.00
20019;BME280;10170;42.502;26.526;2022-11-20T14:01:28;99142.88;;;20.23;100.00
20019;BME280;10170;42.502;26.526;2022-11-20T14:03:58;99138.28;;;20.13;100.00
20019;BME280;10170;42.502;26.526;2022-11-20T14:06:39;99135.63;;;20.08;100.00
20019;BME280;10170;42.502;26.526;2022-11-20T14:09:12;99148.56;;;20.16;100.00
20019;BME280;10170;42.502;26.526;2022-11-20T14:11:46;99117.22;;;20.15;100.00
20019;BME280;10170;42.502;26.526;2022-11-20T14:14:19;99142.28;;;20.26;100.00
20019;BME280;10170;42.502;26.526;2022-11-20T14:16:48;99150.13;;;20.27;100.00
20019;BME280;10170;42.502;26.526;2022-11-20T14:21:49;99131.25;;;20.22;100.00
20019;BME280;10170;42.502;26.526;2022-11-20T14:24:23;99132.03;;;20.28;100.00
20019;BME280;10170;42.502;26.526;2022-11-20T14:26:51;99114.53;;;20.15;100.00
20019;BME280;10170;42.502;26.526;2022-11-20T14:29:29;99131.25;;;20.27;100.00
20019;BME280;10170;42.502;26.526;2022-11-20T14:31:56;99120.97;;;20.24;100.00
20019;BME280;10170;42.502;26.526;2022-11-20T14:34:29;99123.38;;;20.26;100.00
20019;BME280;10170;42.502;26.526;2022-11-20T14:37:02;99117.16;;;20.30;100.00
20019;BME280;10170;42.502;26.526;2022-11-20T14:39:33;99129.66;;;20.16;100.00